createdAt,value
2022-11-02T00:01:36.898Z,102018.44
2022-11-02T00:04:05.728Z,102006.91
2022-11-02T00:06:34.889Z,102008.31
2022-11-02T00:09:04.993Z,102009.00
2022-11-02T00:11:37.138Z,101968.28
2022-11-02T00:14:07.838Z,101937.19
2022-11-02T00:16:38.991Z,101968.13
2022-11-02T00:20:01.718Z,101983.75
2022-11-02T00:22:02.813Z,101998.56
2022-11-02T00:24:35.316Z,101918.88
2022-11-02T00:27:05.026Z,102020.06
2022-11-02T00:29:33.933Z,101987.56
2022-11-02T00:32:01.183Z,102005.78
2022-11-02T00:34:27.844Z,102010.78
2022-11-02T00:36:55.601Z,101945.41
2022-11-02T00:39:22.664Z,101857.16
2022-11-02T00:41:49.607Z,102014.84
2022-11-02T00:44:16.228Z,101914.31
2022-11-02T00:46:43.011Z,102014.47
2022-11-02T00:49:09.664Z,101986.25
2022-11-02T00:51:36.321Z,102021.81
2022-11-02T00:54:03.007Z,102013.75
2022-11-02T00:56:29.725Z,102014.97
2022-11-02T00:59:02.390Z,102019.53
2022-11-02T01:01:29.292Z,102004.09
2022-11-02T01:03:57.813Z,102003.28
2022-11-02T01:06:27.560Z,102016.31
2022-11-02T01:08:58.572Z,101973.72
2022-11-02T01:11:25.908Z,102008.41
2022-11-02T01:13:54.884Z,101992.84
2022-11-02T01:16:23.170Z,101962.19
2022-11-02T01:18:57.092Z,102011.25
2022-11-02T01:21:24.349Z,101967.25
2022-11-02T01:23:51.357Z,101996.28
2022-11-02T01:26:18.544Z,101996.00
2022-11-02T01:28:45.386Z,101972.75
2022-11-02T01:31:12.395Z,101996.00
2022-11-02T01:33:49.380Z,101958.81
2022-11-02T01:38:49.221Z,101981.34
2022-11-02T01:41:21.656Z,101956.81
2022-11-02T01:43:52.329Z,101991.22
2022-11-02T01:46:23.099Z,101960.38
2022-11-02T01:49:20.027Z,101964.47
2022-11-02T01:51:57.690Z,101968.69
2022-11-02T01:54:38.184Z,101989.03
2022-11-02T01:57:08.741Z,101976.59
2022-11-02T01:59:41.549Z,101973.19
2022-11-02T02:02:16.411Z,101967.59
2022-11-02T02:04:45.885Z,101922.69
2022-11-02T02:07:15.025Z,101975.78
2022-11-02T02:09:55.528Z,101935.22
2022-11-02T02:12:23.611Z,101977.78
2022-11-02T02:14:51.203Z,101973.28
2022-11-02T02:17:33.270Z,101965.94
2022-11-02T02:20:37.907Z,101973.56
2022-11-02T02:23:13.977Z,101895.91
2022-11-02T02:26:17.512Z,101973.59
2022-11-02T02:29:14.266Z,101967.91
2022-11-02T02:31:49.230Z,101946.94
2022-11-02T02:34:21.048Z,101936.66
2022-11-02T02:36:58.687Z,101946.25
2022-11-02T02:39:40.876Z,101968.97
2022-11-02T02:42:19.220Z,101910.91
2022-11-02T02:44:53.819Z,101961.34
2022-11-02T02:47:23.758Z,101971.53
2022-11-02T02:50:27.715Z,101934.03
2022-11-02T02:52:56.264Z,101955.16
2022-11-02T02:55:27.754Z,101955.56
2022-11-02T02:57:56.378Z,101960.63
2022-11-02T03:00:23.105Z,101947.66
2022-11-02T03:03:01.257Z,101946.00
2022-11-02T03:05:30.652Z,101916.56
2022-11-02T03:08:06.699Z,101937.97
2022-11-02T03:10:44.168Z,101956.97
2022-11-02T03:13:36.759Z,101904.84
2022-11-02T03:16:11.880Z,101942.91
2022-11-02T03:18:44.537Z,101957.16
2022-11-02T03:21:20.179Z,101957.84
2022-11-02T03:23:56.415Z,101943.34
2022-11-02T03:27:00.819Z,101885.97
2022-11-02T03:29:45.294Z,101811.44
2022-11-02T03:32:39.188Z,101914.91
2022-11-02T03:35:15.984Z,101849.34
2022-11-02T03:37:56.307Z,101954.94
2022-11-02T03:40:37.805Z,101934.47
2022-11-02T03:43:06.964Z,101982.16
2022-11-02T03:45:39.753Z,101862.63
2022-11-02T03:48:12.992Z,101935.47
2022-11-02T03:50:48.164Z,101953.97
2022-11-02T03:53:26.327Z,101987.50
2022-11-02T03:55:58.594Z,101991.63
2022-11-02T03:58:25.846Z,101984.13
2022-11-02T04:01:02.312Z,101985.41
2022-11-02T04:03:32.286Z,102005.59
2022-11-02T04:05:58.890Z,101987.00
2022-11-02T04:08:37.559Z,101992.03
2022-11-02T04:11:24.913Z,101993.59
2022-11-02T04:14:10.943Z,101962.03
2022-11-02T04:16:39.585Z,102002.91
2022-11-02T04:19:24.813Z,101978.22
2022-11-02T04:22:10.038Z,102000.66
2022-11-02T04:24:56.910Z,101982.19
2022-11-02T04:27:26.753Z,102011.25
2022-11-02T04:29:53.374Z,102008.25
2022-11-02T04:32:40.176Z,102021.13
2022-11-02T04:35:07.549Z,101996.72
2022-11-02T04:38:02.403Z,102002.78
2022-11-02T04:40:31.802Z,102004.03
2022-11-02T04:43:05.533Z,102001.66
2022-11-02T04:45:32.295Z,101995.44
2022-11-02T04:48:10.153Z,102025.66
2022-11-02T04:50:37.534Z,102030.16
2022-11-02T04:53:07.308Z,102001.22
2022-11-02T04:55:36.587Z,101962.13
2022-11-02T04:58:03.521Z,101998.53
2022-11-02T05:00:30.646Z,102029.44
2022-11-02T05:03:03.910Z,102019.69
2022-11-02T05:05:32.419Z,102015.75
2022-11-02T05:07:59.223Z,102004.44
2022-11-02T05:10:27.740Z,102015.19
2022-11-02T05:13:01.310Z,102003.19
2022-11-02T05:15:28.597Z,102017.72
2022-11-02T05:17:57.956Z,102015.03
2022-11-02T05:20:25.136Z,101939.81
2022-11-02T05:22:51.859Z,101921.13
2022-11-02T05:25:18.595Z,102014.59
2022-11-02T05:27:45.239Z,101978.31
2022-11-02T05:30:12.724Z,102020.81
2022-11-02T05:32:39.409Z,102007.81
2022-11-02T05:35:08.314Z,102027.00
2022-11-02T05:37:35.168Z,102018.28
2022-11-02T05:40:01.907Z,102028.44
2022-11-02T05:42:29.064Z,102029.88
2022-11-02T05:44:57.051Z,102019.69
2022-11-02T05:47:26.418Z,102006.13
2022-11-02T05:49:53.415Z,102029.00
2022-11-02T05:52:20.328Z,102003.28
2022-11-02T05:54:46.972Z,101967.88
2022-11-02T05:57:14.131Z,101989.88
2022-11-02T05:59:46.795Z,102022.66
2022-11-02T06:02:21.944Z,102011.50
2022-11-02T06:04:53.069Z,102007.00
2022-11-02T06:07:19.824Z,102033.94
2022-11-02T06:09:46.541Z,102005.41
2022-11-02T06:12:13.507Z,101939.91
2022-11-02T06:14:40.237Z,101938.81
2022-11-02T06:17:12.743Z,101983.41
2022-11-02T06:19:39.344Z,102032.66
2022-11-02T06:22:05.958Z,102033.91
2022-11-02T06:24:32.478Z,102019.97
2022-11-02T06:26:59.058Z,102040.81
2022-11-02T06:29:27.090Z,102025.28
2022-11-02T06:31:57.605Z,102031.06
2022-11-02T06:34:24.242Z,102054.34
2022-11-02T06:36:52.904Z,102047.88
2022-11-02T06:39:21.580Z,102071.56
2022-11-02T06:41:48.217Z,102023.84
2022-11-02T06:44:15.094Z,102049.84
2022-11-02T06:46:41.717Z,102083.56
2022-11-02T06:49:08.225Z,102066.66
2022-11-02T06:51:34.753Z,102065.66
2022-11-02T06:54:08.489Z,102049.03
2022-11-02T06:56:38.337Z,102052.00
2022-11-02T06:59:04.895Z,102065.00
2022-11-02T07:01:31.626Z,102060.06
2022-11-02T07:03:58.496Z,102089.41
2022-11-02T07:06:25.257Z,102061.88
2022-11-02T07:08:51.924Z,102010.94
2022-11-02T07:11:18.707Z,102074.88
2022-11-02T07:13:45.288Z,102049.06
2022-11-02T07:16:12.290Z,102066.28
2022-11-02T07:18:38.982Z,102054.84
2022-11-02T07:21:05.748Z,102088.06
2022-11-02T07:23:33.253Z,102057.66
2022-11-02T07:26:03.477Z,102101.91
2022-11-02T07:28:30.984Z,102110.19
2022-11-02T07:31:00.700Z,102098.94
2022-11-02T07:33:36.071Z,102088.19
2022-11-02T07:36:06.922Z,102108.22
2022-11-02T07:38:35.514Z,102071.50
2022-11-02T07:41:02.448Z,102067.13
2022-11-02T07:43:31.491Z,102097.38
2022-11-02T07:45:58.209Z,102098.63
2022-11-02T07:48:25.637Z,102095.50
2022-11-02T07:50:59.855Z,102096.75
2022-11-02T07:53:31.012Z,102072.78
2022-11-02T07:56:01.400Z,102103.84
2022-11-02T07:58:28.179Z,102083.22
2022-11-02T08:01:09.385Z,101951.13
2022-11-02T08:03:36.060Z,102050.03
2022-11-02T08:06:05.541Z,102090.25
2022-11-02T08:08:35.330Z,102076.56
2022-11-02T08:11:09.557Z,102051.84
2022-11-02T08:13:39.246Z,102063.19
2022-11-02T08:16:08.480Z,102086.31
2022-11-02T08:18:35.816Z,102083.81
2022-11-02T08:21:05.542Z,102078.56
2022-11-02T08:23:32.260Z,102060.06
2022-11-02T08:26:00.382Z,102066.13
2022-11-02T08:28:32.715Z,102067.84
2022-11-02T08:31:00.693Z,102001.78
2022-11-02T08:33:28.878Z,102004.75
2022-11-02T08:36:03.366Z,102054.44
2022-11-02T08:38:30.255Z,101965.84
2022-11-02T08:40:57.471Z,102007.31
2022-11-02T08:43:24.375Z,102074.84
2022-11-02T08:46:17.019Z,102070.47
2022-11-02T08:48:45.179Z,102100.63
2022-11-02T08:51:14.304Z,102068.41
2022-11-02T08:53:42.359Z,102042.53
2022-11-02T08:56:10.447Z,102021.66
2022-11-02T08:58:40.295Z,102074.84
2022-11-02T09:01:07.476Z,101959.19
2022-11-02T09:03:34.499Z,102071.88
2022-11-02T09:06:04.585Z,102073.84
2022-11-02T09:08:31.453Z,102071.81
2022-11-02T09:11:05.702Z,102069.13
2022-11-02T09:13:32.554Z,102077.00
2022-11-02T09:16:03.236Z,102067.84
2022-11-02T09:18:34.384Z,102079.09
2022-11-02T09:21:06.128Z,102070.91
2022-11-02T09:23:35.348Z,102077.31
2022-11-02T09:26:05.670Z,102061.88
2022-11-02T09:28:33.831Z,102067.25
2022-11-02T09:31:06.022Z,102066.63
2022-11-02T09:33:36.369Z,101998.09
2022-11-02T09:36:05.741Z,101947.34
2022-11-02T09:38:33.093Z,101927.06
2022-11-02T09:40:59.786Z,102001.72
2022-11-02T09:43:44.561Z,102069.34
2022-11-02T09:46:18.720Z,101861.47
2022-11-02T09:48:51.334Z,102066.34
2022-11-02T09:51:23.485Z,102042.22
2022-11-02T09:54:17.772Z,102078.19
2022-11-02T09:56:46.298Z,102069.19
2022-11-02T09:59:14.455Z,102048.44
2022-11-02T10:01:56.960Z,102056.69
2022-11-02T10:04:55.110Z,102038.09
2022-11-02T10:07:26.563Z,102052.31
2022-11-02T10:10:32.130Z,102026.91
2022-11-02T10:13:13.957Z,102047.59
2022-11-02T10:15:43.837Z,102054.84
2022-11-02T10:18:26.577Z,101998.09
2022-11-02T10:20:59.652Z,102035.25
2022-11-02T10:23:32.956Z,102057.84
2022-11-02T10:26:04.589Z,102033.78
2022-11-02T10:28:39.670Z,102053.59
2022-11-02T10:31:22.690Z,102038.75
2022-11-02T10:33:52.794Z,102043.38
2022-11-02T10:36:39.784Z,101933.88
2022-11-02T10:39:23.841Z,102018.50
2022-11-02T10:42:39.567Z,102023.28
2022-11-02T10:45:28.096Z,102003.38
2022-11-02T10:48:04.381Z,102002.38
2022-11-02T10:50:34.356Z,102005.25
2022-11-02T10:53:27.304Z,101991.09
2022-11-02T10:56:16.216Z,101998.69
2022-11-02T10:59:17.279Z,102011.50
2022-11-02T11:01:57.504Z,101872.38
2022-11-02T11:04:29.334Z,102018.41
2022-11-02T11:06:57.284Z,102011.81
2022-11-02T11:09:37.170Z,102001.16
2022-11-02T11:12:20.901Z,101895.47
2022-11-02T11:20:39.663Z,101933.72
2022-11-02T11:23:16.107Z,101996.78
2022-11-02T11:25:43.704Z,101992.06
2022-11-02T11:28:37.268Z,101963.06
2022-11-02T11:31:09.344Z,101992.72
2022-11-02T11:33:58.566Z,101953.75
2022-11-02T11:36:30.919Z,101945.47
2022-11-02T11:39:23.337Z,101961.69
2022-11-02T11:41:50.354Z,101930.00
2022-11-02T11:44:17.339Z,101872.97
2022-11-02T11:46:48.473Z,101867.22
2022-11-02T11:49:48.066Z,101957.31
2022-11-02T11:52:31.162Z,101890.72
2022-11-02T11:55:01.548Z,101953.78
2022-11-02T11:57:34.028Z,101900.34
2022-11-02T12:00:05.207Z,101949.22
2022-11-02T12:02:40.871Z,101837.44
2022-11-02T12:05:22.638Z,101958.00
2022-11-02T12:08:26.795Z,101962.75
2022-11-02T12:10:56.951Z,101956.16
2022-11-02T12:13:38.924Z,101963.91
2022-11-02T12:16:42.721Z,101955.34
2022-11-02T12:19:41.751Z,101940.47
2022-11-02T12:22:46.135Z,101931.41
2022-11-02T12:25:43.417Z,101872.91
2022-11-02T12:28:31.841Z,101913.69
2022-11-02T12:31:47.684Z,101938.13
2022-11-02T12:38:56.226Z,101924.50
2022-11-02T12:42:02.258Z,101875.44
2022-11-02T12:44:46.558Z,101841.22
2022-11-02T12:48:13.723Z,101909.13
2022-11-02T12:51:16.821Z,101914.53
2022-11-02T12:54:06.258Z,101911.16
2022-11-02T12:56:53.142Z,101898.69
2022-11-02T12:59:36.289Z,101899.34
2022-11-02T13:02:55.601Z,101703.63
2022-11-02T13:05:34.187Z,101683.25
2022-11-02T13:08:29.495Z,101811.41
2022-11-02T13:11:12.928Z,101698.25
2022-11-02T13:13:46.856Z,101683.44
2022-11-02T13:16:47.160Z,101697.91
2022-11-02T13:19:37.146Z,101732.75
2022-11-02T13:22:11.672Z,101735.94
2022-11-02T13:24:48.696Z,101877.09
2022-11-02T13:27:38.982Z,101670.63
2022-11-02T13:30:28.523Z,101849.50
2022-11-02T13:33:23.409Z,101749.09
2022-11-02T13:35:59.194Z,101718.44
2022-11-02T13:39:05.558Z,101716.09
2022-11-02T13:42:21.734Z,101697.56
2022-11-02T13:45:52.407Z,101670.31
2022-11-02T13:48:36.805Z,101874.44
2022-11-02T13:51:43.872Z,101670.78
2022-11-02T13:54:19.100Z,101876.28
2022-11-02T13:57:07.618Z,101740.81
2022-11-02T13:59:51.540Z,101866.69
2022-11-02T14:02:29.882Z,101821.22
2022-11-02T14:05:05.935Z,101885.22
2022-11-02T14:07:46.156Z,101824.91
2022-11-02T14:10:23.855Z,101680.03
2022-11-02T14:12:59.344Z,101910.69
2022-11-02T14:15:34.142Z,101851.19
2022-11-02T14:18:15.578Z,101843.94
2022-11-02T14:20:51.318Z,101683.38
2022-11-02T14:23:38.137Z,101664.84
2022-11-02T14:26:34.253Z,101886.91
2022-11-02T14:29:55.978Z,101749.19
2022-11-02T14:32:43.572Z,101787.78
2022-11-02T14:35:34.619Z,101877.44
2022-11-02T14:38:29.629Z,101884.03
2022-11-02T14:42:01.878Z,101709.94
2022-11-02T14:44:48.612Z,101886.03
2022-11-02T14:47:31.219Z,101663.41
2022-11-02T14:50:24.180Z,101660.41
2022-11-02T14:53:32.358Z,101874.25
2022-11-02T14:56:10.305Z,101830.88
2022-11-02T14:58:56.900Z,101888.88
2022-11-02T15:01:29.300Z,101644.19
2022-11-02T15:04:13.974Z,101683.56
2022-11-02T15:06:59.099Z,101669.25
2022-11-02T15:10:00.795Z,101895.13
2022-11-02T15:12:58.921Z,101836.41
2022-11-02T15:15:47.440Z,101662.66
2022-11-02T15:18:46.435Z,101892.41
2022-11-02T15:21:39.252Z,101895.56
2022-11-02T15:24:24.536Z,101818.34
2022-11-02T15:27:02.420Z,101895.72
2022-11-02T15:29:41.450Z,101818.03
2022-11-02T15:32:22.672Z,101897.09
2022-11-02T15:34:55.369Z,101887.16
2022-11-02T15:37:29.961Z,101870.59
2022-11-02T15:39:59.692Z,101900.25
2022-11-02T15:43:10.172Z,101883.75
2022-11-02T15:46:09.419Z,101890.81
2022-11-02T15:48:53.753Z,101865.81
2022-11-02T15:51:36.876Z,101896.53
2022-11-02T15:54:45.749Z,101891.59
2022-11-02T15:57:33.681Z,101886.19
2022-11-02T16:00:11.045Z,101860.69
2022-11-02T16:02:48.506Z,101766.19
2022-11-02T16:05:27.252Z,101841.09
2022-11-02T16:08:11.484Z,101874.16
2022-11-02T16:10:39.202Z,101869.03
2022-11-02T16:13:20.715Z,101845.59
2022-11-02T16:15:50.515Z,101882.72
2022-11-02T16:18:49.025Z,101876.13
2022-11-02T16:21:20.492Z,101863.28
2022-11-02T16:23:57.014Z,101882.00
2022-11-02T16:26:29.912Z,101782.59
2022-11-02T16:28:59.819Z,101881.09
2022-11-02T16:31:36.179Z,101856.38
2022-11-02T16:34:36.939Z,101858.78
2022-11-02T16:37:10.269Z,101883.72
2022-11-02T16:39:42.198Z,101844.91
2022-11-02T16:42:31.132Z,101897.31
2022-11-02T16:45:01.085Z,101878.22
2022-11-02T16:47:37.827Z,101844.25
2022-11-02T16:50:22.208Z,101883.94
2022-11-02T16:53:05.762Z,101916.94
2022-11-02T16:55:47.518Z,101934.47
2022-11-02T16:58:24.500Z,101938.78
2022-11-02T17:03:38.188Z,101937.47
2022-11-02T17:06:11.233Z,101924.25
2022-11-02T17:08:40.559Z,101891.53
2022-11-02T17:11:18.656Z,101923.78
2022-11-02T17:14:04.516Z,101702.78
2022-11-02T17:16:35.146Z,101898.88
2022-11-02T17:19:41.002Z,101766.09
2022-11-02T17:22:20.251Z,101902.19
2022-11-02T17:24:48.473Z,101919.69
2022-11-02T17:27:25.684Z,101857.13
2022-11-02T17:29:55.983Z,101940.56
2022-11-02T17:32:26.583Z,101931.13
2022-11-02T17:34:58.295Z,101825.94
2022-11-02T17:37:26.536Z,101928.16
2022-11-02T17:40:02.945Z,101937.56
2022-11-02T17:42:48.892Z,101930.66
2022-11-02T17:45:26.097Z,101931.69
2022-11-02T17:47:53.243Z,101900.94
2022-11-02T17:50:21.966Z,101885.84
2022-11-02T17:52:55.597Z,101903.56
2022-11-02T17:55:24.861Z,101934.28
2022-11-02T17:57:56.911Z,101918.53
2022-11-02T18:00:27.312Z,101946.97
2022-11-02T18:02:59.117Z,101932.22
2022-11-02T18:05:31.036Z,101918.09
2022-11-02T18:08:01.218Z,101948.66
2022-11-02T18:10:34.330Z,101946.56
2022-11-02T18:13:01.346Z,101906.56
2022-11-02T18:15:30.769Z,101945.16
2022-11-02T18:17:59.317Z,101933.72
2022-11-02T18:20:28.207Z,101908.63
2022-11-02T18:22:59.066Z,101928.97
2022-11-02T18:25:35.525Z,101965.69
2022-11-02T18:28:02.453Z,101955.25
2022-11-02T18:30:29.962Z,101960.00
2022-11-02T18:32:57.589Z,101955.09
2022-11-02T18:35:28.221Z,101956.84
2022-11-02T18:38:02.463Z,101916.38
2022-11-02T18:40:35.072Z,101922.00
2022-11-02T18:43:10.059Z,101970.31
2022-11-02T18:45:37.074Z,101881.34
2022-11-02T18:48:04.251Z,101963.09
2022-11-02T18:50:31.206Z,101988.19
2022-11-02T18:53:03.508Z,101849.03
2022-11-02T18:55:33.316Z,101862.84
2022-11-02T18:58:03.450Z,101962.53
2022-11-02T19:00:30.573Z,101763.28
2022-11-02T19:02:57.804Z,101966.47
2022-11-02T19:05:43.513Z,101958.09
2022-11-02T19:08:29.241Z,101961.31
2022-11-02T19:10:59.082Z,101952.16
2022-11-02T19:13:25.866Z,101905.06
2022-11-02T19:15:52.613Z,101965.25
2022-11-02T19:18:19.351Z,101962.31
2022-11-02T19:20:47.046Z,101944.56
2022-11-02T19:23:15.195Z,101958.78
2022-11-02T19:25:41.862Z,101966.41
2022-11-02T19:28:14.439Z,101892.06
2022-11-02T19:30:41.177Z,101931.53
2022-11-02T19:33:08.576Z,101945.94
2022-11-02T19:35:35.858Z,101922.38
2022-11-02T19:38:02.738Z,101963.97
2022-11-02T19:40:29.419Z,101968.13
2022-11-02T19:42:56.150Z,101949.03
2022-11-02T19:45:22.852Z,101968.53
2022-11-02T19:47:54.669Z,101946.34
2022-11-02T19:50:22.077Z,101943.88
2022-11-02T19:52:49.920Z,101959.78
2022-11-02T19:55:17.921Z,101946.31
2022-11-02T19:57:54.070Z,101918.31
2022-11-02T20:00:22.267Z,101967.25
2022-11-02T20:02:55.156Z,101978.69
2022-11-02T20:05:21.922Z,101972.09
2022-11-02T20:07:48.637Z,101976.59
2022-11-02T20:10:18.825Z,101975.63
2022-11-02T20:12:45.719Z,101982.66
2022-11-02T20:15:12.253Z,101920.53
2022-11-02T20:17:58.455Z,101869.41
2022-11-02T20:20:26.916Z,101984.94
2022-11-02T20:22:53.651Z,101988.38
2022-11-02T20:25:21.171Z,101975.84
2022-11-02T20:27:50.624Z,101998.69
2022-11-02T20:30:22.409Z,101930.41
2022-11-02T20:33:01.663Z,101983.16
2022-11-02T20:35:28.806Z,101984.88
2022-11-02T20:37:56.003Z,101989.00
2022-11-02T20:40:25.807Z,101904.97
2022-11-02T20:42:57.429Z,102000.44
2022-11-02T20:45:24.700Z,101992.28
2022-11-02T20:47:52.462Z,101945.88
2022-11-02T20:50:23.182Z,101991.25
2022-11-02T20:53:01.326Z,101984.22
2022-11-02T20:55:30.956Z,101981.53
2022-11-02T20:58:06.693Z,101927.56
2022-11-02T21:00:34.668Z,101973.22
2022-11-02T21:03:06.694Z,101963.94
2022-11-02T21:05:44.928Z,101974.22
2022-11-02T21:08:12.576Z,101936.16
2022-11-02T21:10:40.776Z,101986.34
2022-11-02T21:13:29.813Z,101961.25
2022-11-02T21:15:57.309Z,101947.13
2022-11-02T21:18:24.109Z,101945.16
2022-11-02T21:20:55.001Z,101968.81
2022-11-02T21:23:24.296Z,101958.66
2022-11-02T21:26:01.560Z,101978.97
2022-11-02T21:28:34.124Z,101885.94
2022-11-02T21:31:12.769Z,101969.41
2022-11-02T21:33:43.105Z,101958.97
2022-11-02T21:36:10.717Z,101879.84
2022-11-02T21:38:38.537Z,101871.00
2022-11-02T21:41:06.864Z,101982.25
2022-11-02T21:43:36.304Z,101993.38
2022-11-02T21:46:05.835Z,101940.50
2022-11-02T21:48:37.611Z,101987.16
2022-11-02T21:51:05.764Z,101985.91
2022-11-02T21:53:33.700Z,101992.28
2022-11-02T21:56:05.668Z,101872.44
2022-11-02T21:58:34.278Z,101937.28
2022-11-02T22:01:31.149Z,101955.63
2022-11-02T22:03:58.515Z,101976.53
2022-11-02T22:06:31.077Z,101950.69
2022-11-02T22:09:02.288Z,101972.03
2022-11-02T22:11:29.405Z,101954.22
2022-11-02T22:13:58.659Z,101906.59
2022-11-02T22:16:28.341Z,101977.63
2022-11-02T22:18:57.962Z,101895.88
2022-11-02T22:21:27.088Z,101963.41
2022-11-02T22:23:53.867Z,101992.63
2022-11-02T22:26:25.130Z,101765.06
2022-11-02T22:28:54.203Z,101739.69
2022-11-02T22:31:28.222Z,101781.97
2022-11-02T22:33:57.604Z,101940.44
2022-11-02T22:36:32.107Z,101976.66
2022-11-02T22:39:00.660Z,101856.25
2022-11-02T22:41:30.810Z,101974.81
2022-11-02T22:44:01.504Z,101892.34
2022-11-02T22:46:34.869Z,101951.13
2022-11-02T22:49:02.801Z,101935.75
2022-11-02T22:51:39.137Z,101969.47
2022-11-02T22:54:09.818Z,101908.28
2022-11-02T22:56:36.818Z,101912.66
2022-11-02T22:59:11.851Z,101935.06
2022-11-02T23:01:39.551Z,101764.22
2022-11-02T23:04:09.565Z,101952.25
2022-11-02T23:06:38.861Z,101851.28
2022-11-02T23:09:06.048Z,101929.09
2022-11-02T23:11:37.480Z,101886.25
2022-11-02T23:14:06.478Z,101853.44
2022-11-02T23:16:52.447Z,101865.13
2022-11-02T23:19:30.668Z,101811.75
2022-11-02T23:22:27.300Z,101850.06
2022-11-02T23:25:11.545Z,101954.22
2022-11-02T23:28:01.682Z,101948.88
2022-11-02T23:30:52.451Z,101908.69
2022-11-02T23:33:20.102Z,101858.94
2022-11-02T23:36:05.374Z,101940.28
2022-11-02T23:39:01.466Z,101947.50
2022-11-02T23:41:31.778Z,101941.56
2022-11-02T23:44:14.906Z,101890.53
2022-11-02T23:46:48.699Z,101945.47
2022-11-02T23:49:22.316Z,101928.31
2022-11-02T23:52:08.078Z,101936.06
2022-11-02T23:54:59.608Z,101916.72
2022-11-02T23:57:26.261Z,101953.53
2022-11-02T23:59:56.536Z,101956.38
